Terminal Aerodrome Forecast
Issued by NWS Wakefield, VA

Home | Current Version | Previous Version | Text Only | Print | Product List | Glossary On
Versions: 1 2 3 4 5 6 7 8 9 10 11 12 13 14 15
000
FTUS41 KAKQ 012300
TAFSBY
TAF
KSBY 012340Z 0200/0224 15006KT P6SM BKN100 OVC200
     FM020300 16011KT P6SM OVC050
     FM020600 17013G20KT 5SM -RA BR BKN025 OVC040
     FM020900 20018G26KT 3SM -RA BR OVC007
     FM021200 20015G25KT 2SM -RA BR OVC004
     FM021600 26010G18KT P6SM OVC015
     FM021900 29016G28KT P6SM BKN050=

USA.gov is the U.S. government's official web portal to all federal, state and local government web resources and services.